SAS666 LGKV-LGRP
Flight info
| Callsign | SAS666 |
|---|---|
| Flight time | 1h 9m |
| Altitude | 31000 |
| Route | AMALA UN127 LMO UN128 BANRO |
| Aircraft | A321/M-SDE3FGHIRWY/LB1 |
Departure
| Time | 2026-04-27 21:35 |
|---|---|
| Airport | Kavala Alexander the Great International Airport (LGKV) |
Arrival
| Time | 2026-04-27 22:45 |
|---|---|
| Airport | Rhodes International Airport "Diagoras" (LGRP) |
| Time | Latitude | Longitude | Altitude | Speed | Heading |
|---|---|---|---|---|---|
| 2026-04-27 21:28 | 40.90661 | 24.60560 | 20 ft | 0 kts | 56° |
| 2026-04-27 21:35 | 40.90743 | 24.60715 | 21 ft | 68 kts | 53° |
| 2026-04-27 21:35 | 40.91210 | 24.61603 | 28 ft | 162 kts | 55° |
| 2026-04-27 21:35 | 40.91905 | 24.62919 | 726 ft | 179 kts | 55° |
| 2026-04-27 21:35 | 40.92622 | 24.64255 | 1902 ft | 179 kts | 56° |
| 2026-04-27 21:36 | 40.93522 | 24.65506 | 2668 ft | 202 kts | 34° |
| 2026-04-27 21:36 | 40.94910 | 24.66219 | 3296 ft | 231 kts | 10° |
| 2026-04-27 21:36 | 40.96594 | 24.66475 | 4059 ft | 254 kts | 5° |
| 2026-04-27 21:36 | 40.98383 | 24.66692 | 5169 ft | 260 kts | 4° |
| 2026-04-27 21:37 | 41.00193 | 24.66939 | 6381 ft | 262 kts | 5° |
| 2026-04-27 21:37 | 41.02021 | 24.67209 | 7526 ft | 265 kts | 5° |
| 2026-04-27 21:37 | 41.03850 | 24.67471 | 8604 ft | 269 kts | 6° |
| 2026-04-27 21:37 | 41.05584 | 24.68101 | 10197 ft | 251 kts | 26° |
| 2026-04-27 21:38 | 41.06958 | 24.69462 | 11481 ft | 247 kts | 47° |
| 2026-04-27 21:38 | 41.07830 | 24.71438 | 12524 ft | 253 kts | 71° |
| 2026-04-27 21:38 | 41.08039 | 24.73772 | 13500 ft | 261 kts | 94° |
| 2026-04-27 21:38 | 41.07810 | 24.76182 | 14382 ft | 270 kts | 98° |
| 2026-04-27 21:39 | 41.07075 | 24.78566 | 14897 ft | 291 kts | 127° |
| 2026-04-27 21:39 | 41.05513 | 24.80297 | 15629 ft | 299 kts | 156° |
| 2026-04-27 21:39 | 41.03492 | 24.80907 | 16278 ft | 301 kts | 179° |
| 2026-04-27 21:39 | 41.01410 | 24.81014 | 16910 ft | 304 kts | 179° |
| 2026-04-27 21:40 | 40.99281 | 24.81105 | 17554 ft | 308 kts | 179° |
| 2026-04-27 21:40 | 40.97121 | 24.81196 | 18194 ft | 311 kts | 179° |
| 2026-04-27 21:40 | 40.94939 | 24.81296 | 18784 ft | 315 kts | 179° |
| 2026-04-27 21:40 | 40.92738 | 24.81401 | 19329 ft | 318 kts | 179° |
| 2026-04-27 21:41 | 40.90510 | 24.81514 | 19879 ft | 320 kts | 179° |
| 2026-04-27 21:41 | 40.88272 | 24.81634 | 20425 ft | 323 kts | 179° |
| 2026-04-27 21:41 | 40.86010 | 24.81758 | 20963 ft | 326 kts | 179° |
| 2026-04-27 21:41 | 40.83730 | 24.81884 | 21513 ft | 329 kts | 179° |
| 2026-04-27 21:42 | 40.81472 | 24.82009 | 22013 ft | 331 kts | 179° |
| 2026-04-27 21:42 | 40.79155 | 24.82134 | 22552 ft | 334 kts | 179° |
| 2026-04-27 21:42 | 40.76820 | 24.82255 | 23074 ft | 337 kts | 179° |
| 2026-04-27 21:42 | 40.74454 | 24.82374 | 23578 ft | 340 kts | 180° |
| 2026-04-27 21:43 | 40.72076 | 24.82492 | 24033 ft | 343 kts | 180° |
| 2026-04-27 21:43 | 40.69679 | 24.82610 | 24442 ft | 345 kts | 180° |
| 2026-04-27 21:43 | 40.67266 | 24.82733 | 24840 ft | 347 kts | 180° |
| 2026-04-27 21:43 | 40.64848 | 24.82856 | 25229 ft | 349 kts | 180° |
| 2026-04-27 21:44 | 40.62417 | 24.82981 | 25628 ft | 350 kts | 180° |
| 2026-04-27 21:44 | 40.59971 | 24.83109 | 26021 ft | 352 kts | 180° |
| 2026-04-27 21:44 | 40.57528 | 24.83416 | 26399 ft | 356 kts | 171° |
| 2026-04-27 21:44 | 40.55163 | 24.84342 | 26643 ft | 365 kts | 159° |
| 2026-04-27 21:45 | 40.52828 | 24.85791 | 26775 ft | 376 kts | 156° |
| 2026-04-27 21:45 | 40.50443 | 24.87304 | 26901 ft | 385 kts | 156° |
| 2026-04-27 21:45 | 40.47992 | 24.88854 | 27033 ft | 394 kts | 156° |
| 2026-04-27 21:45 | 40.45492 | 24.90428 | 27165 ft | 403 kts | 156° |
| 2026-04-27 21:46 | 40.42937 | 24.92029 | 27281 ft | 411 kts | 156° |
| 2026-04-27 21:46 | 40.40327 | 24.93656 | 27424 ft | 420 kts | 156° |
| 2026-04-27 21:46 | 40.37660 | 24.95319 | 27544 ft | 428 kts | 156° |
| 2026-04-27 21:46 | 40.34944 | 24.97018 | 27682 ft | 436 kts | 156° |
| 2026-04-27 21:47 | 40.32182 | 24.98744 | 27813 ft | 443 kts | 156° |
| 2026-04-27 21:47 | 40.29372 | 25.00498 | 27945 ft | 450 kts | 156° |
| 2026-04-27 21:47 | 40.27127 | 25.01898 | 28087 ft | 455 kts | 156° |
| 2026-04-27 21:47 | 40.24712 | 25.03403 | 28317 ft | 458 kts | 156° |
| 2026-04-27 21:48 | 40.21815 | 25.05209 | 28627 ft | 460 kts | 156° |
| 2026-04-27 21:48 | 40.18917 | 25.07018 | 28931 ft | 463 kts | 156° |
| 2026-04-27 21:48 | 40.15997 | 25.08839 | 29246 ft | 465 kts | 156° |
| 2026-04-27 21:48 | 40.13065 | 25.10661 | 29554 ft | 467 kts | 157° |
| 2026-04-27 21:49 | 40.11113 | 25.11871 | 29756 ft | 468 kts | 157° |
| 2026-04-27 21:49 | 40.07199 | 25.14291 | 30140 ft | 471 kts | 157° |
| 2026-04-27 21:49 | 40.05198 | 25.15527 | 30308 ft | 472 kts | 157° |
| 2026-04-27 21:49 | 40.01257 | 25.17966 | 30609 ft | 474 kts | 157° |
| 2026-04-27 21:50 | 39.98276 | 25.19811 | 30842 ft | 475 kts | 157° |
| 2026-04-27 21:50 | 39.95279 | 25.21665 | 31107 ft | 476 kts | 157° |
| 2026-04-27 21:50 | 39.93286 | 25.22987 | 31312 ft | 476 kts | 152° |
| 2026-04-27 21:50 | 39.90528 | 25.25386 | 31617 ft | 478 kts | 143° |
| 2026-04-27 21:51 | 39.88002 | 25.28207 | 31915 ft | 478 kts | 140° |
| 2026-04-27 21:51 | 39.85537 | 25.31024 | 32228 ft | 477 kts | 141° |
| 2026-04-27 21:51 | 39.83041 | 25.33867 | 32533 ft | 476 kts | 141° |
| 2026-04-27 21:51 | 39.80548 | 25.36697 | 32836 ft | 475 kts | 141° |
| 2026-04-27 21:52 | 39.78054 | 25.39521 | 33133 ft | 474 kts | 141° |
| 2026-04-27 21:52 | 39.75564 | 25.42336 | 33447 ft | 473 kts | 141° |
| 2026-04-27 21:52 | 39.73074 | 25.45150 | 33751 ft | 473 kts | 141° |
| 2026-04-27 21:52 | 39.70588 | 25.47958 | 34037 ft | 472 kts | 141° |
| 2026-04-27 21:53 | 39.68112 | 25.50749 | 34303 ft | 471 kts | 141° |
| 2026-04-27 21:53 | 39.65633 | 25.53543 | 34535 ft | 471 kts | 141° |
| 2026-04-27 21:53 | 39.63160 | 25.56336 | 34774 ft | 471 kts | 141° |
| 2026-04-27 21:53 | 39.60694 | 25.59119 | 35000 ft | 471 kts | 141° |
| 2026-04-27 21:54 | 39.58250 | 25.61871 | 35221 ft | 470 kts | 141° |
| 2026-04-27 21:54 | 39.55778 | 25.64652 | 35440 ft | 470 kts | 141° |
| 2026-04-27 21:54 | 39.53300 | 25.67436 | 35643 ft | 471 kts | 141° |
| 2026-04-27 21:54 | 39.50816 | 25.70222 | 35856 ft | 471 kts | 141° |
| 2026-04-27 21:55 | 39.48333 | 25.73005 | 36077 ft | 471 kts | 142° |
| 2026-04-27 21:55 | 39.45858 | 25.75775 | 36287 ft | 471 kts | 142° |
| 2026-04-27 21:55 | 39.43379 | 25.78546 | 36515 ft | 471 kts | 142° |
| 2026-04-27 21:55 | 39.40936 | 25.81276 | 36712 ft | 471 kts | 142° |
| 2026-04-27 21:56 | 39.38459 | 25.84036 | 36914 ft | 470 kts | 142° |
| 2026-04-27 21:56 | 39.33489 | 25.89576 | 37130 ft | 470 kts | 142° |
| 2026-04-27 21:57 | 39.28529 | 25.95094 | 37131 ft | 469 kts | 142° |
| 2026-04-27 21:57 | 39.23535 | 26.00517 | 37122 ft | 469 kts | 143° |
| 2026-04-27 21:58 | 39.18519 | 26.05859 | 37121 ft | 469 kts | 143° |
| 2026-04-27 21:58 | 39.13480 | 26.11226 | 37108 ft | 469 kts | 143° |
| 2026-04-27 21:59 | 39.08493 | 26.16557 | 37111 ft | 469 kts | 143° |
| 2026-04-27 21:59 | 39.03467 | 26.21941 | 37116 ft | 469 kts | 143° |
| 2026-04-27 22:00 | 38.98437 | 26.27304 | 37117 ft | 469 kts | 143° |
| 2026-04-27 22:00 | 38.93398 | 26.32660 | 37124 ft | 470 kts | 143° |
| 2026-04-27 22:01 | 38.88387 | 26.37969 | 37128 ft | 470 kts | 143° |
| 2026-04-27 22:01 | 38.83342 | 26.43312 | 37120 ft | 470 kts | 143° |
| 2026-04-27 22:02 | 38.78367 | 26.48764 | 37119 ft | 470 kts | 141° |
| 2026-04-27 22:02 | 38.73473 | 26.54334 | 37113 ft | 470 kts | 141° |
| 2026-04-27 22:03 | 38.68575 | 26.59895 | 37106 ft | 470 kts | 141° |
| 2026-04-27 22:03 | 38.63679 | 26.65357 | 37104 ft | 470 kts | 142° |
| 2026-04-27 22:04 | 38.58749 | 26.70832 | 37082 ft | 469 kts | 142° |
| 2026-04-27 22:04 | 38.53816 | 26.76307 | 37092 ft | 469 kts | 141° |
| 2026-04-27 22:05 | 38.48894 | 26.81768 | 37092 ft | 469 kts | 141° |
| 2026-04-27 22:05 | 38.43967 | 26.87226 | 37075 ft | 469 kts | 142° |
| 2026-04-27 22:06 | 38.39034 | 26.92671 | 37067 ft | 469 kts | 142° |
| 2026-04-27 22:06 | 38.34096 | 26.98104 | 37059 ft | 469 kts | 143° |
| 2026-04-27 22:07 | 38.28637 | 27.02461 | 37042 ft | 461 kts | 160° |
| 2026-04-27 22:07 | 38.22756 | 27.05711 | 37047 ft | 461 kts | 160° |
| 2026-04-27 22:08 | 38.16870 | 27.08968 | 37051 ft | 461 kts | 160° |
| 2026-04-27 22:08 | 38.11022 | 27.12212 | 37053 ft | 461 kts | 160° |
| 2026-04-27 22:09 | 38.05144 | 27.15468 | 37049 ft | 461 kts | 160° |
| 2026-04-27 22:09 | 37.99259 | 27.18719 | 37055 ft | 461 kts | 160° |
| 2026-04-27 22:10 | 37.93360 | 27.21963 | 37059 ft | 461 kts | 160° |
| 2026-04-27 22:10 | 37.87465 | 27.25195 | 37057 ft | 462 kts | 160° |
| 2026-04-27 22:11 | 37.81578 | 27.28430 | 37052 ft | 462 kts | 160° |
| 2026-04-27 22:11 | 37.75674 | 27.31666 | 37051 ft | 462 kts | 160° |
| 2026-04-27 22:12 | 37.69817 | 27.34874 | 37050 ft | 462 kts | 160° |
| 2026-04-27 22:12 | 37.63919 | 27.38091 | 37048 ft | 462 kts | 160° |
| 2026-04-27 22:13 | 37.58034 | 27.41359 | 37046 ft | 462 kts | 159° |
| 2026-04-27 22:13 | 37.52186 | 27.44742 | 37037 ft | 463 kts | 158° |
| 2026-04-27 22:14 | 37.46315 | 27.48098 | 37043 ft | 462 kts | 160° |
| 2026-04-27 22:14 | 37.40377 | 27.51215 | 37051 ft | 462 kts | 161° |
| 2026-04-27 22:15 | 37.34422 | 27.54252 | 37046 ft | 462 kts | 161° |
| 2026-04-27 22:15 | 37.28477 | 27.57316 | 37046 ft | 462 kts | 160° |
| 2026-04-27 22:16 | 37.22600 | 27.60468 | 37032 ft | 462 kts | 159° |
| 2026-04-27 22:16 | 37.16712 | 27.63708 | 37031 ft | 462 kts | 159° |
| 2026-04-27 22:17 | 37.10809 | 27.66933 | 37030 ft | 462 kts | 160° |
| 2026-04-27 22:17 | 37.04903 | 27.70112 | 37010 ft | 462 kts | 160° |
| 2026-04-27 22:18 | 36.98987 | 27.73289 | 37020 ft | 463 kts | 160° |
| 2026-04-27 22:18 | 36.93074 | 27.76477 | 37025 ft | 463 kts | 160° |
| 2026-04-27 22:19 | 36.87179 | 27.79653 | 36365 ft | 459 kts | 160° |
| 2026-04-27 22:19 | 36.84245 | 27.81227 | 35706 ft | 460 kts | 159° |
| 2026-04-27 22:19 | 36.81300 | 27.82806 | 35018 ft | 460 kts | 159° |
| 2026-04-27 22:19 | 36.78358 | 27.84383 | 34331 ft | 461 kts | 159° |
| 2026-04-27 22:20 | 36.75403 | 27.85965 | 33584 ft | 462 kts | 159° |
| 2026-04-27 22:20 | 36.72447 | 27.87545 | 32868 ft | 461 kts | 159° |
| 2026-04-27 22:20 | 36.69512 | 27.89112 | 32280 ft | 455 kts | 159° |
| 2026-04-27 22:20 | 36.66620 | 27.90637 | 31292 ft | 447 kts | 159° |
| 2026-04-27 22:21 | 36.63807 | 27.92103 | 30328 ft | 441 kts | 159° |
| 2026-04-27 22:21 | 36.60988 | 27.93548 | 29241 ft | 433 kts | 161° |
| 2026-04-27 22:21 | 36.58091 | 27.94344 | 28193 ft | 421 kts | 180° |
| 2026-04-27 22:21 | 36.55189 | 27.94316 | 27112 ft | 413 kts | 184° |
| 2026-04-27 22:22 | 36.52337 | 27.94170 | 26108 ft | 407 kts | 184° |
| 2026-04-27 22:22 | 36.49529 | 27.94017 | 25148 ft | 401 kts | 184° |
| 2026-04-27 22:22 | 36.46764 | 27.93862 | 24218 ft | 395 kts | 186° |
| 2026-04-27 22:22 | 36.44122 | 27.93181 | 23437 ft | 383 kts | 205° |
| 2026-04-27 22:23 | 36.41709 | 27.91788 | 23112 ft | 384 kts | 208° |
| 2026-04-27 22:23 | 36.39233 | 27.90650 | 22938 ft | 387 kts | 193° |
| 2026-04-27 22:23 | 36.36555 | 27.90347 | 22185 ft | 385 kts | 182° |
| 2026-04-27 22:23 | 36.33924 | 27.89966 | 21369 ft | 376 kts | 199° |
| 2026-04-27 22:24 | 36.31599 | 27.88601 | 20566 ft | 367 kts | 214° |
| 2026-04-27 22:24 | 36.29480 | 27.86843 | 19721 ft | 364 kts | 216° |
| 2026-04-27 22:24 | 36.27399 | 27.85066 | 18918 ft | 361 kts | 216° |
| 2026-04-27 22:24 | 36.25347 | 27.83307 | 18168 ft | 358 kts | 216° |
| 2026-04-27 22:25 | 36.23293 | 27.81580 | 17322 ft | 355 kts | 212° |
| 2026-04-27 22:25 | 36.21011 | 27.80459 | 16524 ft | 354 kts | 193° |
| 2026-04-27 22:25 | 36.18569 | 27.80311 | 15738 ft | 352 kts | 173° |
| 2026-04-27 22:25 | 36.16232 | 27.81162 | 14967 ft | 349 kts | 153° |
| 2026-04-27 22:26 | 36.14298 | 27.82863 | 14227 ft | 345 kts | 134° |
| 2026-04-27 22:26 | 36.12905 | 27.85245 | 13458 ft | 340 kts | 114° |
| 2026-04-27 22:26 | 36.12199 | 27.88005 | 12653 ft | 334 kts | 96° |
| 2026-04-27 22:26 | 36.12210 | 27.90848 | 11862 ft | 329 kts | 78° |
| 2026-04-27 22:27 | 36.12912 | 27.93507 | 11096 ft | 324 kts | 61° |
| 2026-04-27 22:27 | 36.14186 | 27.95776 | 10336 ft | 320 kts | 49° |
| 2026-04-27 22:27 | 36.15596 | 27.97873 | 9928 ft | 309 kts | 49° |
| 2026-04-27 22:27 | 36.16934 | 27.99867 | 9789 ft | 296 kts | 49° |
| 2026-04-27 22:28 | 36.18180 | 28.01846 | 9662 ft | 295 kts | 59° |
| 2026-04-27 22:28 | 36.18862 | 28.04232 | 9523 ft | 295 kts | 78° |
| 2026-04-27 22:28 | 36.19188 | 28.06739 | 9407 ft | 296 kts | 86° |
| 2026-04-27 22:28 | 36.18943 | 28.09247 | 9283 ft | 294 kts | 103° |
| 2026-04-27 22:29 | 36.18218 | 28.11605 | 9136 ft | 294 kts | 117° |
| 2026-04-27 22:29 | 36.17247 | 28.13828 | 9027 ft | 293 kts | 119° |
| 2026-04-27 22:29 | 36.16253 | 28.16030 | 8903 ft | 292 kts | 119° |
| 2026-04-27 22:29 | 36.15253 | 28.18214 | 8768 ft | 292 kts | 122° |
| 2026-04-27 22:30 | 36.13895 | 28.20034 | 8644 ft | 290 kts | 147° |
| 2026-04-27 22:30 | 36.12038 | 28.20923 | 8513 ft | 288 kts | 174° |
| 2026-04-27 22:30 | 36.10074 | 28.20699 | 8386 ft | 285 kts | 201° |
| 2026-04-27 22:30 | 36.08411 | 28.19415 | 8258 ft | 283 kts | 227° |
| 2026-04-27 22:31 | 36.07328 | 28.17413 | 8133 ft | 281 kts | 251° |
| 2026-04-27 22:31 | 36.07041 | 28.15038 | 8008 ft | 280 kts | 276° |
| 2026-04-27 22:31 | 36.07563 | 28.12733 | 7903 ft | 279 kts | 299° |
| 2026-04-27 22:31 | 36.08780 | 28.10885 | 7856 ft | 279 kts | 322° |
| 2026-04-27 22:32 | 36.10497 | 28.09794 | 7809 ft | 280 kts | 345° |
| 2026-04-27 22:32 | 36.12428 | 28.09647 | 7753 ft | 281 kts | 9° |
| 2026-04-27 22:32 | 36.14247 | 28.10480 | 7701 ft | 281 kts | 32° |
| 2026-04-27 22:32 | 36.15821 | 28.11873 | 7648 ft | 282 kts | 36° |
| 2026-04-27 22:33 | 36.17429 | 28.13326 | 7612 ft | 282 kts | 36° |
| 2026-04-27 22:33 | 36.18991 | 28.14738 | 7561 ft | 282 kts | 36° |
| 2026-04-27 22:33 | 36.20578 | 28.16168 | 7514 ft | 282 kts | 36° |
| 2026-04-27 22:33 | 36.22163 | 28.17595 | 7465 ft | 281 kts | 36° |
| 2026-04-27 22:34 | 36.23744 | 28.19017 | 7403 ft | 281 kts | 36° |
| 2026-04-27 22:34 | 36.25331 | 28.20441 | 7360 ft | 281 kts | 36° |
| 2026-04-27 22:34 | 36.26913 | 28.21863 | 7308 ft | 281 kts | 36° |
| 2026-04-27 22:34 | 36.28492 | 28.23286 | 7268 ft | 280 kts | 36° |
| 2026-04-27 22:35 | 36.30042 | 28.24683 | 7216 ft | 268 kts | 36° |
| 2026-04-27 22:35 | 36.31497 | 28.25997 | 7187 ft | 251 kts | 36° |
| 2026-04-27 22:35 | 36.32894 | 28.27257 | 7139 ft | 247 kts | 36° |
| 2026-04-27 22:35 | 36.33810 | 28.28084 | 7070 ft | 246 kts | 36° |
| 2026-04-27 22:36 | 36.35633 | 28.29731 | 6591 ft | 243 kts | 36° |
| 2026-04-27 22:36 | 36.36978 | 28.30987 | 6252 ft | 241 kts | 42° |
| 2026-04-27 22:36 | 36.38013 | 28.32605 | 5913 ft | 240 kts | 61° |
| 2026-04-27 22:36 | 36.38602 | 28.34545 | 5393 ft | 244 kts | 73° |
| 2026-04-27 22:37 | 36.39272 | 28.36423 | 4889 ft | 232 kts | 57° |
| 2026-04-27 22:37 | 36.39960 | 28.37438 | 4480 ft | 224 kts | 43° |
| 2026-04-27 22:37 | 36.41221 | 28.38444 | 3905 ft | 214 kts | 22° |
| 2026-04-27 22:37 | 36.43118 | 28.38866 | 3168 ft | 204 kts | 357° |
| 2026-04-27 22:38 | 36.44042 | 28.38700 | 2816 ft | 202 kts | 345° |
| 2026-04-27 22:38 | 36.45334 | 28.38015 | 2304 ft | 203 kts | 327° |
| 2026-04-27 22:38 | 36.46345 | 28.36906 | 2285 ft | 178 kts | 309° |
| 2026-04-27 22:38 | 36.46987 | 28.35694 | 2444 ft | 162 kts | 296° |
| 2026-04-27 22:39 | 36.47350 | 28.34404 | 2488 ft | 156 kts | 283° |
| 2026-04-27 22:39 | 36.47445 | 28.33068 | 2495 ft | 154 kts | 268° |
| 2026-04-27 22:39 | 36.47283 | 28.31774 | 2491 ft | 154 kts | 255° |
| 2026-04-27 22:39 | 36.46932 | 28.30540 | 2489 ft | 148 kts | 251° |
| 2026-04-27 22:40 | 36.46582 | 28.29345 | 2498 ft | 146 kts | 251° |
| 2026-04-27 22:40 | 36.46236 | 28.28160 | 2493 ft | 145 kts | 251° |
| 2026-04-27 22:40 | 36.45893 | 28.26980 | 2492 ft | 145 kts | 251° |
| 2026-04-27 22:40 | 36.45553 | 28.25814 | 2501 ft | 145 kts | 251° |
| 2026-04-27 22:41 | 36.45210 | 28.24637 | 2498 ft | 145 kts | 251° |
| 2026-04-27 22:41 | 36.44872 | 28.23477 | 2361 ft | 141 kts | 251° |
| 2026-04-27 22:41 | 36.44538 | 28.22331 | 2021 ft | 142 kts | 251° |
| 2026-04-27 22:41 | 36.44204 | 28.21183 | 1834 ft | 142 kts | 251° |
| 2026-04-27 22:42 | 36.43868 | 28.20031 | 1642 ft | 142 kts | 252° |
| 2026-04-27 22:42 | 36.43533 | 28.18881 | 1446 ft | 141 kts | 251° |
| 2026-04-27 22:42 | 36.43199 | 28.17739 | 1267 ft | 141 kts | 251° |
| 2026-04-27 22:42 | 36.42865 | 28.16596 | 1070 ft | 140 kts | 251° |
| 2026-04-27 22:43 | 36.42539 | 28.15478 | 867 ft | 139 kts | 251° |
| 2026-04-27 22:43 | 36.42219 | 28.14357 | 694 ft | 137 kts | 251° |
| 2026-04-27 22:43 | 36.41887 | 28.13247 | 565 ft | 137 kts | 251° |
| 2026-04-27 22:43 | 36.41566 | 28.12138 | 382 ft | 136 kts | 249° |
| 2026-04-27 22:44 | 36.41246 | 28.11035 | 182 ft | 135 kts | 250° |
| 2026-04-27 22:44 | 36.40926 | 28.09939 | 28 ft | 133 kts | 250° |
| 2026-04-27 22:44 | 36.40653 | 28.09018 | 30 ft | 89 kts | 250° |
| 2026-04-27 22:44 | 36.40498 | 28.08478 | 28 ft | 50 kts | 250° |
| 2026-04-27 22:45 | 36.40388 | 28.08113 | 28 ft | 41 kts | 247° |
| 2026-04-27 22:45 | 36.40229 | 28.07905 | 28 ft | 25 kts | 220° |
| 2026-04-27 22:45 | 36.40152 | 28.07918 | 28 ft | 13 kts | 82° |
| 2026-04-27 22:45 | 36.40182 | 28.08034 | 28 ft | 15 kts | 69° |
| 2026-04-27 22:46 | 36.40229 | 28.08182 | 29 ft | 22 kts | 70° |
| 2026-04-27 22:46 | 36.40281 | 28.08369 | 28 ft | 24 kts | 72° |
| 2026-04-27 22:46 | 36.40341 | 28.08568 | 28 ft | 25 kts | 67° |
| 2026-04-27 22:46 | 36.40395 | 28.08761 | 28 ft | 16 kts | 77° |
| 2026-04-27 22:47 | 36.40396 | 28.08909 | 28 ft | 18 kts | 89° |
| 2026-04-27 22:47 | 36.40401 | 28.09000 | 28 ft | 10 kts | 79° |
| 2026-04-27 22:47 | 36.40422 | 28.09092 | 28 ft | 9 kts | 94° |
| 2026-04-27 22:47 | 36.40376 | 28.09132 | 28 ft | 6 kts | 160° |
| 2026-04-27 22:48 | 36.40368 | 28.09136 | 28 ft | 0 kts | 158° |